createdAt,value
2022-08-16T00:00:05.807Z,21
2022-08-16T00:01:14.930Z,21.1
2022-08-16T00:02:25.053Z,21
2022-08-16T00:03:35.167Z,21
2022-08-16T00:04:45.300Z,21.1
2022-08-16T00:05:55.416Z,21
2022-08-16T00:07:05.532Z,21
2022-08-16T00:08:15.644Z,21
2022-08-16T00:10:35.872Z,21
2022-08-16T00:11:46.004Z,21
2022-08-16T00:12:56.114Z,21
2022-08-16T00:14:06.231Z,21
2022-08-16T00:15:16.347Z,21
2022-08-16T00:16:25.484Z,20.9
2022-08-16T00:17:35.598Z,20.9
2022-08-16T00:18:45.715Z,21
2022-08-16T00:19:55.847Z,21
2022-08-16T00:21:05.968Z,21
2022-08-16T00:22:16.084Z,21
2022-08-16T00:23:26.187Z,21
2022-08-16T00:24:36.308Z,21
2022-08-16T00:25:45.460Z,20.9
2022-08-16T00:26:54.586Z,20.9
2022-08-16T00:28:04.710Z,20.8
2022-08-16T00:29:14.828Z,20.7
2022-08-16T00:30:24.940Z,20.7
2022-08-16T00:31:35.070Z,20.7
2022-08-16T00:32:45.183Z,20.6
2022-08-16T00:33:55.296Z,20.6
2022-08-16T00:35:05.408Z,20.6
2022-08-16T00:36:15.529Z,20.6
2022-08-16T00:37:25.649Z,20.5
2022-08-16T00:38:35.774Z,20.5
2022-08-16T00:39:45.881Z,20.5
2022-08-16T00:40:56.010Z,20.5
2022-08-16T00:42:05.148Z,20.5
2022-08-16T00:43:15.268Z,20.5
2022-08-16T00:44:25.375Z,20.5
2022-08-16T00:45:35.488Z,20.5
2022-08-16T00:46:45.617Z,20.5
2022-08-16T00:47:55.731Z,20.5
2022-08-16T00:49:05.839Z,20.5
2022-08-16T00:50:14.982Z,20.6
2022-08-16T00:51:24.129Z,20.6
2022-08-16T00:52:33.280Z,20.6
2022-08-16T00:53:42.402Z,20.7
2022-08-16T00:54:52.532Z,20.7
2022-08-16T00:56:01.658Z,20.7
2022-08-16T00:57:10.799Z,20.7
2022-08-16T00:58:20.925Z,20.7
2022-08-16T00:59:31.039Z,20.7
2022-08-16T01:00:41.156Z,20.7
2022-08-16T01:01:51.273Z,20.7
2022-08-16T01:03:01.387Z,20.7
2022-08-16T01:04:11.502Z,20.7
2022-08-16T01:05:21.616Z,20.7
2022-08-16T01:06:31.735Z,20.7
2022-08-16T01:07:41.854Z,20.7
2022-08-16T01:08:51.986Z,20.7
2022-08-16T01:10:02.093Z,20.7
2022-08-16T01:11:12.225Z,20.7
2022-08-16T01:12:21.358Z,20.7
2022-08-16T01:13:31.469Z,20.7
2022-08-16T01:14:41.589Z,20.6
2022-08-16T01:15:51.711Z,20.6
2022-08-16T01:17:01.816Z,20.6
2022-08-16T01:18:11.938Z,20.6
2022-08-16T01:19:22.059Z,20.6
2022-08-16T01:20:31.205Z,20.5
2022-08-16T01:21:40.328Z,20.5
2022-08-16T01:22:49.487Z,20.5
2022-08-16T01:23:58.608Z,20.5
2022-08-16T01:25:08.741Z,20.5
2022-08-16T01:26:18.860Z,20.5
2022-08-16T01:27:28.962Z,20.4
2022-08-16T01:28:39.080Z,20.4
2022-08-16T01:29:49.199Z,20.5
2022-08-16T01:30:59.331Z,20.5
2022-08-16T01:32:09.450Z,20.5
2022-08-16T01:33:19.565Z,20.5
2022-08-16T01:34:29.686Z,20.5
2022-08-16T01:35:39.788Z,20.6
2022-08-16T01:36:49.911Z,20.6
2022-08-16T01:38:00.032Z,20.5
2022-08-16T01:39:09.166Z,20.5
2022-08-16T01:40:19.284Z,20.5
2022-08-16T01:41:29.411Z,20.4
2022-08-16T01:42:39.528Z,20.4
2022-08-16T01:43:49.636Z,20.4
2022-08-16T01:44:59.745Z,20.3
2022-08-16T01:46:09.868Z,20.3
2022-08-16T01:47:19.981Z,20.3
2022-08-16T01:48:29.139Z,20.2
2022-08-16T01:49:38.265Z,20.2
2022-08-16T01:50:47.408Z,20.2
2022-08-16T01:51:56.543Z,20.2
2022-08-16T01:53:06.673Z,20.2
2022-08-16T01:54:16.774Z,20.2
2022-08-16T01:55:26.900Z,20.1
2022-08-16T01:56:37.010Z,20.1
2022-08-16T01:57:47.136Z,20.1
2022-08-16T01:58:57.257Z,20.1
2022-08-16T02:00:07.365Z,20.1
2022-08-16T02:01:17.485Z,20
2022-08-16T02:02:27.605Z,20.1
2022-08-16T02:03:37.724Z,20
2022-08-16T02:04:47.852Z,20.1
2022-08-16T02:05:57.961Z,20.1
2022-08-16T02:07:07.096Z,20.1
2022-08-16T02:08:17.220Z,20.1
2022-08-16T02:09:27.325Z,20.2
2022-08-16T02:10:37.450Z,20.2
2022-08-16T02:11:47.562Z,20.2
2022-08-16T02:12:57.683Z,20.2
2022-08-16T02:14:07.813Z,20.2
2022-08-16T02:15:16.941Z,20.2
2022-08-16T02:16:26.084Z,20.2
2022-08-16T02:17:35.237Z,20.2
2022-08-16T02:18:44.364Z,20.2
2022-08-16T02:21:04.609Z,20.2
2022-08-16T02:22:14.723Z,20.2
2022-08-16T02:23:24.831Z,20.2
2022-08-16T02:24:34.946Z,20.2
2022-08-16T02:25:45.075Z,20.2
2022-08-16T02:26:55.196Z,20.2
2022-08-16T02:28:05.314Z,20.2
2022-08-16T02:29:15.423Z,20.2
2022-08-16T02:30:25.551Z,20.2
2022-08-16T02:31:35.653Z,20.2
2022-08-16T02:32:45.777Z,20.2
2022-08-16T02:33:54.923Z,20.1
2022-08-16T02:35:05.037Z,20.2
2022-08-16T02:36:15.158Z,20.2
2022-08-16T02:37:25.276Z,20.2
2022-08-16T02:38:35.392Z,20.2
2022-08-16T02:39:45.509Z,20.2
2022-08-16T02:40:55.622Z,20.2
2022-08-16T02:42:05.741Z,20.2
2022-08-16T02:43:14.880Z,20.1
2022-08-16T02:44:24.020Z,20.1
2022-08-16T02:45:33.169Z,20.1
2022-08-16T02:46:42.305Z,20.1
2022-08-16T02:47:52.421Z,20.1
2022-08-16T02:49:02.543Z,20.1
2022-08-16T02:50:12.661Z,20.1
2022-08-16T02:52:32.892Z,20.1
2022-08-16T02:53:43.009Z,20.1
2022-08-16T02:56:03.235Z,20.1
2022-08-16T02:57:13.350Z,20.2
2022-08-16T02:58:23.480Z,20.2
2022-08-16T02:59:33.589Z,20.2
2022-08-16T03:00:42.746Z,20.2
2022-08-16T03:01:51.867Z,20.1
2022-08-16T03:03:01.995Z,20.2
2022-08-16T03:04:12.101Z,20.1
2022-08-16T03:05:22.232Z,20.1
2022-08-16T03:06:32.345Z,20.1
2022-08-16T03:08:52.572Z,20.1
2022-08-16T03:10:02.694Z,20.1
2022-08-16T03:11:12.821Z,20.1
2022-08-16T03:12:22.940Z,20
2022-08-16T03:13:33.052Z,20
2022-08-16T03:14:43.162Z,20
2022-08-16T03:15:53.293Z,20
2022-08-16T03:17:02.428Z,20
2022-08-16T03:18:12.545Z,20
2022-08-16T03:19:22.653Z,20
2022-08-16T03:20:32.781Z,20
2022-08-16T03:21:42.894Z,20
2022-08-16T03:22:53.004Z,19.9
2022-08-16T03:24:03.131Z,20
2022-08-16T03:25:13.242Z,19.9
2022-08-16T03:26:23.358Z,19.9
2022-08-16T03:27:32.509Z,19.9
2022-08-16T03:28:41.651Z,19.9
2022-08-16T03:29:51.770Z,19.9
2022-08-16T03:31:00.899Z,19.9
2022-08-16T03:32:10.051Z,19.9
2022-08-16T03:33:20.159Z,19.9
2022-08-16T03:34:30.279Z,19.9
2022-08-16T03:36:50.518Z,19.9
2022-08-16T03:38:00.630Z,19.9
2022-08-16T03:39:10.741Z,19.9
2022-08-16T03:40:20.876Z,20
2022-08-16T03:41:30.978Z,20
2022-08-16T03:42:41.101Z,20
2022-08-16T03:43:51.223Z,20
2022-08-16T03:45:01.342Z,20
2022-08-16T03:46:11.464Z,20
2022-08-16T03:47:20.595Z,19.9
2022-08-16T03:48:30.716Z,19.9
2022-08-16T03:49:40.831Z,19.9
2022-08-16T03:50:50.953Z,19.9
2022-08-16T03:52:01.072Z,19.9
2022-08-16T03:53:11.191Z,19.9
2022-08-16T03:54:21.305Z,19.8
2022-08-16T03:55:31.412Z,19.8
2022-08-16T03:56:40.572Z,19.8
2022-08-16T03:57:49.692Z,19.8
2022-08-16T03:58:58.845Z,19.8
2022-08-16T04:00:07.974Z,19.8
2022-08-16T04:01:18.102Z,19.8
2022-08-16T04:02:28.216Z,19.8
2022-08-16T04:03:38.319Z,19.8
2022-08-16T04:04:48.452Z,19.8
2022-08-16T04:05:58.573Z,19.8
2022-08-16T04:07:08.674Z,19.8
2022-08-16T04:08:18.791Z,19.8
2022-08-16T04:09:28.928Z,19.8
2022-08-16T04:10:39.041Z,19.8
2022-08-16T04:11:49.161Z,19.8
2022-08-16T04:12:59.275Z,19.8
2022-08-16T04:14:09.393Z,19.8
2022-08-16T04:15:18.519Z,19.8
2022-08-16T04:16:28.651Z,19.8
2022-08-16T04:17:38.763Z,19.8
2022-08-16T04:18:48.884Z,19.7
2022-08-16T04:19:58.995Z,19.8
2022-08-16T04:21:09.114Z,19.8
2022-08-16T04:22:19.242Z,19.8
2022-08-16T04:23:28.368Z,19.8
2022-08-16T04:25:47.627Z,19.8
2022-08-16T04:26:57.754Z,19.7
2022-08-16T04:28:07.860Z,19.7
2022-08-16T04:29:17.983Z,19.7
2022-08-16T04:30:28.101Z,19.7
2022-08-16T04:31:38.223Z,19.7
2022-08-16T04:32:48.335Z,19.7
2022-08-16T04:33:58.458Z,19.7
2022-08-16T04:35:08.573Z,19.7
2022-08-16T04:36:18.695Z,19.7
2022-08-16T04:37:28.806Z,19.8
2022-08-16T04:39:49.035Z,19.8
2022-08-16T04:40:58.185Z,19.8
2022-08-16T04:42:08.305Z,19.8
2022-08-16T04:43:18.421Z,19.8
2022-08-16T04:44:28.537Z,19.8
2022-08-16T04:45:38.644Z,19.8
2022-08-16T04:46:48.779Z,19.8
2022-08-16T04:47:58.888Z,19.8
2022-08-16T04:49:09.001Z,19.8
2022-08-16T04:50:18.151Z,19.8
2022-08-16T04:51:28.259Z,19.8
2022-08-16T04:52:37.422Z,19.8
2022-08-16T04:53:46.547Z,19.8
2022-08-16T04:54:55.692Z,19.9
2022-08-16T04:56:04.832Z,19.9
2022-08-16T04:57:14.934Z,19.9
2022-08-16T04:58:25.057Z,19.9
2022-08-16T04:59:35.173Z,20
2022-08-16T05:00:45.289Z,20
2022-08-16T05:01:55.408Z,20
2022-08-16T05:03:05.531Z,20
2022-08-16T05:04:15.659Z,20
2022-08-16T05:05:25.772Z,20
2022-08-16T05:06:35.892Z,20
2022-08-16T05:07:46.015Z,20
2022-08-16T05:08:56.128Z,20
2022-08-16T05:10:06.244Z,20
2022-08-16T05:11:15.379Z,20.1
2022-08-16T05:12:25.485Z,20.1
2022-08-16T05:13:35.605Z,20.1
2022-08-16T05:14:45.735Z,20.1
2022-08-16T05:15:55.846Z,20.1
2022-08-16T05:17:05.959Z,20.2
2022-08-16T05:18:16.091Z,20.2
2022-08-16T05:19:25.230Z,20.2
2022-08-16T05:20:34.364Z,20.2
2022-08-16T05:21:44.489Z,20.3
2022-08-16T05:22:54.596Z,20.3
2022-08-16T05:24:03.749Z,20.3
2022-08-16T05:25:12.866Z,20.3
2022-08-16T05:26:22.989Z,20.4
2022-08-16T05:27:33.116Z,20.4
2022-08-16T05:28:43.233Z,20.4
2022-08-16T05:29:53.350Z,20.4
2022-08-16T05:31:03.462Z,20.4
2022-08-16T05:32:13.592Z,20.5
2022-08-16T05:33:23.699Z,20.5
2022-08-16T05:34:33.819Z,20.5
2022-08-16T05:35:43.933Z,20.6
2022-08-16T05:36:54.052Z,20.6
2022-08-16T05:39:14.299Z,20.6
2022-08-16T05:40:23.429Z,20.6
2022-08-16T05:41:33.549Z,20.6
2022-08-16T05:42:43.657Z,20.5
2022-08-16T05:43:53.776Z,20.5
2022-08-16T05:45:03.889Z,20.5
2022-08-16T05:47:24.136Z,20.4
2022-08-16T05:48:34.243Z,20.4
2022-08-16T05:49:44.365Z,20.4
2022-08-16T05:50:53.515Z,20.4
2022-08-16T05:52:02.641Z,20.4
2022-08-16T05:53:11.789Z,20.5
2022-08-16T05:54:21.906Z,20.5
2022-08-16T05:55:31.044Z,20.5
2022-08-16T05:56:41.158Z,20.6
2022-08-16T05:57:51.270Z,20.6
2022-08-16T05:59:01.393Z,20.7
2022-08-16T06:00:11.516Z,20.7
2022-08-16T06:01:21.624Z,20.8
2022-08-16T06:02:31.751Z,20.8
2022-08-16T06:03:41.864Z,20.9
2022-08-16T06:04:51.986Z,20.9
2022-08-16T06:06:02.110Z,21
2022-08-16T06:07:12.213Z,21
2022-08-16T06:09:32.450Z,21.1
2022-08-16T06:10:41.592Z,21.1
2022-08-16T06:11:50.729Z,21.2
2022-08-16T06:13:00.850Z,21.2
2022-08-16T06:14:10.970Z,21.1
2022-08-16T06:15:21.096Z,21.1
2022-08-16T06:16:31.202Z,21.1
2022-08-16T06:17:41.320Z,21
2022-08-16T06:18:51.451Z,21
2022-08-16T06:20:01.554Z,21
2022-08-16T06:21:10.695Z,21
2022-08-16T06:22:19.832Z,21.1
2022-08-16T06:23:29.963Z,21.1
2022-08-16T06:24:40.082Z,21
2022-08-16T06:25:50.200Z,21
2022-08-16T06:27:00.307Z,21.1
2022-08-16T06:28:10.427Z,21.1
2022-08-16T06:29:20.535Z,21.2
2022-08-16T06:30:30.664Z,21.2
2022-08-16T06:31:40.779Z,21.2
2022-08-16T06:32:50.889Z,21.3
2022-08-16T06:34:01.009Z,21.4
2022-08-16T06:35:11.129Z,21.4
2022-08-16T06:36:21.263Z,21.4
2022-08-16T06:37:30.391Z,21.5
2022-08-16T06:38:40.513Z,21.5
2022-08-16T06:39:50.623Z,21.6
2022-08-16T06:41:00.737Z,21.6
2022-08-16T06:42:10.864Z,21.6
2022-08-16T06:43:20.967Z,21.7
2022-08-16T06:44:31.090Z,21.7
2022-08-16T06:45:40.239Z,21.7
2022-08-16T06:46:49.370Z,21.8
2022-08-16T06:47:58.514Z,21.8
2022-08-16T06:49:07.657Z,21.8
2022-08-16T06:50:16.794Z,21.9
2022-08-16T06:51:25.921Z,21.9
2022-08-16T06:52:36.040Z,21.9
2022-08-16T06:53:45.188Z,22
2022-08-16T06:54:54.332Z,22
2022-08-16T06:56:04.449Z,22
2022-08-16T06:57:14.560Z,22
2022-08-16T06:58:24.682Z,22.1
2022-08-16T06:59:34.806Z,22.1
2022-08-16T07:00:44.912Z,22
2022-08-16T07:01:55.033Z,22
2022-08-16T07:03:05.161Z,22
2022-08-16T07:04:15.276Z,22
2022-08-16T07:05:25.382Z,22
2022-08-16T07:06:35.501Z,22
2022-08-16T07:07:45.627Z,22
2022-08-16T07:08:55.743Z,22
2022-08-16T07:10:05.866Z,21.9
2022-08-16T07:11:14.995Z,21.9
2022-08-16T07:12:25.119Z,21.9
2022-08-16T07:13:35.231Z,21.9
2022-08-16T07:14:45.351Z,21.9
2022-08-16T07:15:55.463Z,21.9
2022-08-16T07:17:05.584Z,21.9
2022-08-16T07:18:14.717Z,21.9
2022-08-16T07:19:24.959Z,21.9
2022-08-16T07:20:34.111Z,21.9
2022-08-16T07:21:43.252Z,21.9
2022-08-16T07:22:53.356Z,22
2022-08-16T07:24:03.481Z,22
2022-08-16T07:25:13.593Z,22
2022-08-16T07:26:23.715Z,22
2022-08-16T07:27:33.839Z,22.1
2022-08-16T07:28:43.950Z,22.1
2022-08-16T07:29:54.071Z,22.1
2022-08-16T07:31:04.186Z,22.2
2022-08-16T07:32:14.310Z,22.2
2022-08-16T07:33:24.415Z,22.2
2022-08-16T07:34:34.534Z,22.3
2022-08-16T07:35:44.652Z,22.3
2022-08-16T07:36:53.796Z,22.4
2022-08-16T07:38:03.910Z,22.4
2022-08-16T07:39:14.021Z,22.5
2022-08-16T07:40:24.156Z,22.5
2022-08-16T07:41:34.271Z,22.5
2022-08-16T07:42:44.372Z,22.5
2022-08-16T07:43:54.503Z,22.6
2022-08-16T07:45:03.646Z,22.6
2022-08-16T07:46:13.755Z,22.6
2022-08-16T07:47:22.913Z,22.7
2022-08-16T07:48:32.036Z,22.7
2022-08-16T07:49:42.157Z,22.7
2022-08-16T07:50:52.277Z,22.8
2022-08-16T07:52:02.394Z,22.8
2022-08-16T07:53:12.509Z,22.8
2022-08-16T07:54:22.625Z,22.8
2022-08-16T07:55:32.752Z,22.9
2022-08-16T07:56:42.866Z,22.9
2022-08-16T07:57:52.977Z,23
2022-08-16T07:59:03.100Z,23
2022-08-16T08:00:13.213Z,23
2022-08-16T08:01:23.327Z,23
2022-08-16T08:02:33.456Z,23.1
2022-08-16T08:03:42.586Z,23.1
2022-08-16T08:04:52.706Z,23.1
2022-08-16T08:06:02.831Z,23.2
2022-08-16T08:08:23.067Z,23.2
2022-08-16T08:09:33.178Z,23.2
2022-08-16T08:10:43.304Z,23.3
2022-08-16T08:11:53.419Z,23.3
2022-08-16T08:13:02.558Z,23.3
2022-08-16T08:14:11.701Z,23.3
2022-08-16T08:15:20.828Z,23.4
2022-08-16T08:16:29.982Z,23.4
2022-08-16T08:17:40.095Z,23.4
2022-08-16T08:18:50.200Z,23.4
2022-08-16T08:20:00.323Z,23.4
2022-08-16T08:21:10.435Z,23.4
2022-08-16T08:22:20.568Z,23.4
2022-08-16T08:23:30.672Z,23.4
2022-08-16T08:24:40.800Z,23.5
2022-08-16T08:25:50.917Z,23.5
2022-08-16T08:27:01.029Z,23.5
2022-08-16T08:28:11.150Z,23.6
2022-08-16T08:29:21.270Z,23.7
2022-08-16T08:30:31.383Z,23.7
2022-08-16T08:31:41.504Z,23.8
2022-08-16T08:32:50.645Z,23.8
2022-08-16T08:34:00.756Z,23.8
2022-08-16T08:35:10.873Z,23.8
2022-08-16T08:36:20.999Z,23.8
2022-08-16T08:37:31.119Z,23.9
2022-08-16T08:38:41.220Z,23.9
2022-08-16T08:39:50.372Z,23.9
2022-08-16T08:40:59.512Z,23.9
2022-08-16T08:42:08.648Z,23.9
2022-08-16T08:43:17.788Z,24
2022-08-16T08:44:27.916Z,24
2022-08-16T08:45:38.017Z,24
2022-08-16T08:46:48.136Z,24
2022-08-16T08:47:58.251Z,24
2022-08-16T08:49:08.371Z,24
2022-08-16T08:50:18.494Z,24.1
2022-08-16T08:51:28.613Z,24.1
2022-08-16T08:52:38.737Z,24.2
2022-08-16T08:53:48.849Z,24.2
2022-08-16T08:54:58.972Z,24.2
2022-08-16T08:56:09.092Z,24.3
2022-08-16T08:57:19.206Z,24.3
2022-08-16T08:58:28.337Z,24.3
2022-08-16T09:00:48.577Z,24.3
2022-08-16T09:01:58.681Z,24.3
2022-08-16T09:03:08.813Z,24.3
2022-08-16T09:04:18.932Z,24.4
2022-08-16T09:05:29.036Z,24.5
2022-08-16T09:06:39.169Z,24.5
2022-08-16T09:07:48.311Z,24.5
2022-08-16T09:08:58.431Z,24.5
2022-08-16T09:10:07.570Z,24.5
2022-08-16T09:11:16.000Z,24.5
2022-08-16T09:12:26.827Z,24.5
2022-08-16T09:13:36.943Z,24.5
2022-08-16T09:14:47.050Z,24.6
2022-08-16T09:15:57.170Z,24.6
2022-08-16T09:17:07.293Z,24.7
2022-08-16T09:18:17.414Z,24.8
2022-08-16T09:19:27.527Z,24.8
2022-08-16T09:20:37.651Z,24.9
2022-08-16T09:21:47.775Z,24.9
2022-08-16T09:22:57.884Z,25
2022-08-16T09:24:07.996Z,25
2022-08-16T09:25:18.127Z,25.1
2022-08-16T09:26:27.258Z,25.1
2022-08-16T09:27:37.368Z,25.2
2022-08-16T09:28:47.488Z,25.2
2022-08-16T09:29:57.609Z,25.2
2022-08-16T09:31:07.734Z,25.1
2022-08-16T09:32:17.834Z,25.1
2022-08-16T09:33:27.962Z,25.1
2022-08-16T09:34:38.077Z,25.1
2022-08-16T09:35:47.214Z,25.1
2022-08-16T09:36:56.361Z,25.1
2022-08-16T09:38:05.499Z,25.2
2022-08-16T09:39:14.633Z,25.2
2022-08-16T09:41:34.873Z,25.3
2022-08-16T09:42:44.997Z,25.3
2022-08-16T09:43:55.115Z,25.4
2022-08-16T09:45:05.231Z,25.4
2022-08-16T09:46:15.342Z,25.4
2022-08-16T09:47:25.460Z,25.4
2022-08-16T09:48:35.571Z,25.5
2022-08-16T09:49:45.706Z,25.5
2022-08-16T09:50:55.810Z,25.5
2022-08-16T09:52:05.934Z,25.6
2022-08-16T09:53:16.059Z,25.7
2022-08-16T09:54:25.176Z,25.8
2022-08-16T09:55:35.311Z,25.8
2022-08-16T09:56:45.415Z,25.9
2022-08-16T09:57:55.536Z,26
2022-08-16T09:59:05.654Z,26.1
2022-08-16T10:00:15.777Z,26.1
2022-08-16T10:01:25.886Z,26.2
2022-08-16T10:02:36.008Z,26.3
2022-08-16T10:03:45.147Z,26.4
2022-08-16T10:04:55.283Z,26.4
2022-08-16T10:06:05.390Z,26.5
2022-08-16T10:07:14.533Z,26.6
2022-08-16T10:08:23.682Z,26.7
2022-08-16T10:09:33.796Z,26.8
2022-08-16T10:10:43.918Z,26.8
2022-08-16T10:11:54.032Z,26.8
2022-08-16T10:13:04.147Z,26.9
2022-08-16T10:14:14.274Z,26.9
2022-08-16T10:15:24.375Z,27
2022-08-16T10:16:34.497Z,27.1
2022-08-16T10:17:44.612Z,27.3
2022-08-16T10:18:54.745Z,27.3
2022-08-16T10:20:04.846Z,27.4
2022-08-16T10:21:14.975Z,27.5
2022-08-16T10:22:25.087Z,27.6
2022-08-16T10:23:34.235Z,27.6
2022-08-16T10:24:44.351Z,27.8
2022-08-16T10:25:54.464Z,27.9
2022-08-16T10:27:04.590Z,27.9
2022-08-16T10:28:14.702Z,28
2022-08-16T10:29:24.826Z,28
2022-08-16T10:30:34.945Z,28.1
2022-08-16T10:31:44.070Z,28.1
2022-08-16T10:32:53.217Z,28.2
2022-08-16T10:34:03.332Z,28.2
2022-08-16T10:35:13.446Z,28.2
2022-08-16T10:36:23.558Z,28.3
2022-08-16T10:37:33.695Z,28.3
2022-08-16T10:38:43.797Z,28.3
2022-08-16T10:39:53.927Z,28.4
2022-08-16T10:41:04.047Z,28.4
2022-08-16T10:42:14.154Z,28.4
2022-08-16T10:43:24.266Z,28.4
2022-08-16T10:44:34.394Z,28.3
2022-08-16T10:45:44.510Z,28.2
2022-08-16T10:46:54.622Z,28.1
2022-08-16T10:48:03.766Z,28.1
2022-08-16T10:49:13.885Z,28.1
2022-08-16T10:50:23.996Z,28.1
2022-08-16T10:51:34.120Z,28.2
2022-08-16T10:52:44.245Z,28.2
2022-08-16T10:53:54.349Z,28.2
2022-08-16T10:55:04.479Z,28.3
2022-08-16T10:56:13.623Z,28.4
2022-08-16T10:57:22.756Z,28.5
2022-08-16T10:58:31.898Z,28.6
2022-08-16T10:59:41.021Z,28.6
2022-08-16T11:00:51.151Z,28.7
2022-08-16T11:02:00.297Z,28.7
2022-08-16T11:03:09.429Z,28.6
2022-08-16T11:04:19.542Z,28.7
2022-08-16T11:05:29.666Z,28.8
2022-08-16T11:06:39.772Z,29
2022-08-16T11:07:49.893Z,29.1
2022-08-16T11:09:00.016Z,29.2
2022-08-16T11:10:10.126Z,29.3
2022-08-16T11:11:20.258Z,29.4
2022-08-16T11:12:30.377Z,29.4
2022-08-16T11:13:40.497Z,29.5
2022-08-16T11:14:50.603Z,29.6
2022-08-16T11:16:00.722Z,29.6
2022-08-16T11:17:10.852Z,29.6
2022-08-16T11:18:20.959Z,29.5
2022-08-16T11:19:30.098Z,29.3
2022-08-16T11:20:40.216Z,29.2
2022-08-16T11:21:50.341Z,29.1
2022-08-16T11:23:00.445Z,29.1
2022-08-16T11:24:10.567Z,29.2
2022-08-16T11:25:20.690Z,29.3
2022-08-16T11:26:29.832Z,29.3
2022-08-16T11:27:38.966Z,29.4
2022-08-16T11:28:48.107Z,29.4
2022-08-16T11:29:57.242Z,29.5
2022-08-16T11:31:07.359Z,29.5
2022-08-16T11:32:17.481Z,29.5
2022-08-16T11:33:27.590Z,29.6
2022-08-16T11:34:37.712Z,29.6
2022-08-16T11:35:47.839Z,29.6
2022-08-16T11:36:57.955Z,29.8
2022-08-16T11:38:08.082Z,29.9
2022-08-16T11:39:18.195Z,29.9
2022-08-16T11:40:28.307Z,30
2022-08-16T11:41:38.419Z,30
2022-08-16T11:42:48.552Z,30
2022-08-16T11:43:58.662Z,30
2022-08-16T11:45:07.802Z,30.1
2022-08-16T11:46:17.922Z,30.2
2022-08-16T11:47:28.038Z,30.4
2022-08-16T11:48:38.156Z,30.5
2022-08-16T11:49:48.264Z,30.6
2022-08-16T11:50:58.385Z,30.5
2022-08-16T11:52:08.503Z,30.4
2022-08-16T11:53:17.645Z,30.3
2022-08-16T11:54:26.785Z,30.3
2022-08-16T11:55:36.902Z,30.2
2022-08-16T11:56:47.025Z,30.2
2022-08-16T11:57:57.133Z,30.3
2022-08-16T11:59:07.255Z,30.3
2022-08-16T12:00:17.373Z,30.4
2022-08-16T12:01:27.497Z,30.5
2022-08-16T12:02:37.614Z,30.7
2022-08-16T12:03:47.734Z,30.9
2022-08-16T12:04:57.849Z,31
2022-08-16T12:06:07.968Z,31.1
2022-08-16T12:07:18.097Z,31.2
2022-08-16T12:08:28.201Z,31.3
2022-08-16T12:09:38.329Z,31.4
2022-08-16T12:10:47.462Z,31.4
2022-08-16T12:11:57.589Z,31.4
2022-08-16T12:13:07.697Z,31.4
2022-08-16T12:14:17.814Z,31.5
2022-08-16T12:15:27.932Z,31.6
2022-08-16T12:16:38.060Z,31.7
2022-08-16T12:17:47.192Z,31.8
2022-08-16T12:18:56.331Z,31.9
2022-08-16T12:20:05.487Z,32
2022-08-16T12:21:14.621Z,32
2022-08-16T12:22:24.729Z,32
2022-08-16T12:23:34.854Z,32.1
2022-08-16T12:24:44.979Z,32.1
2022-08-16T12:25:55.091Z,32.1
2022-08-16T12:27:05.201Z,32.1
2022-08-16T12:28:15.331Z,32.1
2022-08-16T12:29:25.449Z,32.3
2022-08-16T12:30:35.562Z,32.3
2022-08-16T12:31:45.677Z,32.2
2022-08-16T12:32:55.794Z,32.1
2022-08-16T12:34:05.911Z,32.1
2022-08-16T12:35:16.031Z,32
2022-08-16T12:36:26.164Z,32
2022-08-16T12:37:35.301Z,32
2022-08-16T12:38:45.405Z,32
2022-08-16T12:39:55.525Z,32
2022-08-16T12:41:05.650Z,32.1
2022-08-16T12:43:25.885Z,32.3
2022-08-16T12:44:36.005Z,32.4
2022-08-16T12:45:45.148Z,32.4
2022-08-16T12:46:55.268Z,32.5
2022-08-16T12:48:04.408Z,32.6
2022-08-16T12:49:13.541Z,32.5
2022-08-16T12:50:23.673Z,32.6
2022-08-16T12:51:33.780Z,32.5
2022-08-16T12:52:43.911Z,32.5
2022-08-16T12:53:54.025Z,32.5
2022-08-16T12:55:04.149Z,32.5
2022-08-16T12:56:14.257Z,32.5
2022-08-16T12:57:24.372Z,32.6
2022-08-16T12:58:34.497Z,32.6
2022-08-16T12:59:44.608Z,32.6
2022-08-16T13:00:54.737Z,32.6
2022-08-16T13:02:04.848Z,32.6
2022-08-16T13:03:14.976Z,32.6
2022-08-16T13:04:24.109Z,32.6
2022-08-16T13:05:34.223Z,32.6
2022-08-16T13:06:44.334Z,32.5
2022-08-16T13:07:54.467Z,32.3
2022-08-16T13:09:04.581Z,32.2
2022-08-16T13:10:14.701Z,32
2022-08-16T13:11:24.818Z,31.8
2022-08-16T13:12:33.971Z,31.6
2022-08-16T13:13:43.088Z,31.3
2022-08-16T13:14:53.209Z,30.9
2022-08-16T13:16:03.335Z,30.7
2022-08-16T13:17:13.458Z,30.6
2022-08-16T13:18:23.582Z,30.4
2022-08-16T13:19:33.701Z,30.3
2022-08-16T13:20:43.810Z,30.2
2022-08-16T13:21:53.939Z,30.2
2022-08-16T13:23:04.044Z,30.2
2022-08-16T13:24:14.163Z,30.3
2022-08-16T13:25:24.282Z,30.5
2022-08-16T13:26:34.397Z,30.6
2022-08-16T13:27:44.513Z,30.8
2022-08-16T13:28:53.657Z,30.9
2022-08-16T13:30:03.778Z,31.1
2022-08-16T13:31:13.888Z,31.2
2022-08-16T13:32:24.015Z,31.4
2022-08-16T13:33:34.131Z,31.4
2022-08-16T13:34:44.249Z,31.6
2022-08-16T13:35:54.369Z,31.8
2022-08-16T13:37:03.511Z,31.9
2022-08-16T13:38:12.650Z,31.9
2022-08-16T13:39:22.767Z,31.9
2022-08-16T13:40:32.885Z,31.9
2022-08-16T13:41:43.008Z,32.1
2022-08-16T13:42:53.123Z,32.1
2022-08-16T13:44:03.236Z,32.2
2022-08-16T13:45:13.362Z,32.2
2022-08-16T13:46:23.488Z,32.3
2022-08-16T13:47:33.606Z,32.5
2022-08-16T13:48:43.727Z,32.6
2022-08-16T13:49:53.844Z,32.6
2022-08-16T13:51:03.951Z,32.6
2022-08-16T13:52:14.070Z,32.5
2022-08-16T13:53:23.205Z,32.3
2022-08-16T13:54:33.321Z,32.3
2022-08-16T13:55:43.441Z,32.2
2022-08-16T13:56:53.562Z,32.1
2022-08-16T13:58:03.695Z,32
2022-08-16T13:59:13.796Z,32.1
2022-08-16T14:00:23.919Z,32.1
2022-08-16T14:01:33.076Z,32.2
2022-08-16T14:02:42.203Z,32.2
2022-08-16T14:03:51.347Z,32.1
2022-08-16T14:05:00.490Z,31.9
2022-08-16T14:06:09.640Z,31.6
2022-08-16T14:07:18.759Z,31.2
2022-08-16T14:08:27.902Z,31
2022-08-16T14:09:37.049Z,30.9
2022-08-16T14:10:47.167Z,30.7
2022-08-16T14:11:57.274Z,30.7
2022-08-16T14:13:07.396Z,30.6
2022-08-16T14:14:17.516Z,30.6
2022-08-16T14:15:27.633Z,30.5
2022-08-16T14:16:37.761Z,30.3
2022-08-16T14:17:47.878Z,30.2
2022-08-16T14:18:57.991Z,30
2022-08-16T14:20:08.108Z,29.9
2022-08-16T14:21:18.225Z,29.8
2022-08-16T14:22:28.349Z,29.7
2022-08-16T14:23:38.478Z,29.6
2022-08-16T14:24:47.616Z,29.5
2022-08-16T14:25:57.732Z,29.5
2022-08-16T14:27:07.839Z,29.4
2022-08-16T14:28:17.967Z,29.3
2022-08-16T14:29:28.090Z,29.3
2022-08-16T14:30:38.204Z,29.2
2022-08-16T14:31:48.322Z,29.2
2022-08-16T14:32:58.443Z,29.2
2022-08-16T14:34:07.578Z,29.2
2022-08-16T14:35:16.712Z,29.1
2022-08-16T14:36:26.832Z,29.3
2022-08-16T14:37:36.955Z,29.3
2022-08-16T14:38:47.078Z,29.4
2022-08-16T14:39:57.201Z,29.5
2022-08-16T14:41:07.304Z,29.5
2022-08-16T14:42:17.426Z,29.5
2022-08-16T14:43:27.543Z,29.4
2022-08-16T14:44:37.671Z,29.4
2022-08-16T14:45:47.777Z,29.4
2022-08-16T14:46:57.912Z,29.4
2022-08-16T14:48:08.029Z,29.3
2022-08-16T14:49:18.148Z,29.4
2022-08-16T14:50:27.271Z,29.4
2022-08-16T14:51:37.395Z,29.6
2022-08-16T14:52:47.522Z,29.8
2022-08-16T14:53:57.637Z,30
2022-08-16T14:55:07.748Z,30.2
2022-08-16T14:56:17.864Z,30.3
2022-08-16T14:57:27.994Z,30.2
2022-08-16T14:58:38.117Z,30.2
2022-08-16T14:59:47.247Z,30.4
2022-08-16T15:00:56.382Z,30.5
2022-08-16T15:02:05.527Z,30.5
2022-08-16T15:03:14.670Z,30.6
2022-08-16T15:04:24.790Z,30.5
2022-08-16T15:05:34.906Z,30.4
2022-08-16T15:06:45.022Z,30.4
2022-08-16T15:07:55.140Z,30.3
2022-08-16T15:09:05.260Z,30.3
2022-08-16T15:10:15.374Z,30.2
2022-08-16T15:11:25.496Z,30.2
2022-08-16T15:12:35.621Z,30.1
2022-08-16T15:14:55.854Z,30.1
2022-08-16T15:16:05.973Z,30
2022-08-16T15:17:16.097Z,30
2022-08-16T15:18:25.223Z,30
2022-08-16T15:19:35.345Z,30
2022-08-16T15:20:45.456Z,30
2022-08-16T15:21:55.577Z,30
2022-08-16T15:23:05.705Z,30
2022-08-16T15:24:15.825Z,30.1
2022-08-16T15:25:25.946Z,30.1
2022-08-16T15:26:36.046Z,30.2
2022-08-16T15:27:45.190Z,30.2
2022-08-16T15:28:54.332Z,30.2
2022-08-16T15:30:04.457Z,30.2
2022-08-16T15:31:13.589Z,30.2
2022-08-16T15:32:22.728Z,30.2
2022-08-16T15:33:32.852Z,30.2
2022-08-16T15:34:42.961Z,30.3
2022-08-16T15:35:53.095Z,30.3
2022-08-16T15:37:03.204Z,30.2
2022-08-16T15:38:13.320Z,30.3
2022-08-16T15:39:23.451Z,30.3
2022-08-16T15:40:33.573Z,30.5
2022-08-16T15:41:43.683Z,30.6
2022-08-16T15:42:53.793Z,30.7
2022-08-16T15:44:03.911Z,30.5
2022-08-16T15:45:14.029Z,30.4
2022-08-16T15:46:24.163Z,30.4
2022-08-16T15:47:33.297Z,30.5
2022-08-16T15:48:43.405Z,30.5
2022-08-16T15:49:53.538Z,30.6
2022-08-16T15:51:03.652Z,30.6
2022-08-16T15:52:13.759Z,30.7
2022-08-16T15:53:23.886Z,30.7
2022-08-16T15:54:34.005Z,30.8
2022-08-16T15:55:43.141Z,30.9
2022-08-16T15:56:53.267Z,30.9